createdAt,value
2023-11-20T00:01:24.549Z,95436.34
2023-11-20T00:03:52.880Z,95451.91
2023-11-20T00:06:20.607Z,95454.84
2023-11-20T00:08:49.458Z,95451.13
2023-11-20T00:11:17.437Z,95366.47
2023-11-20T00:13:45.568Z,95441.91
2023-11-20T00:16:13.994Z,95357.84
2023-11-20T00:18:42.054Z,95433.47
2023-11-20T00:21:09.682Z,95430.59
2023-11-20T00:23:37.215Z,95434.78
2023-11-20T00:26:06.837Z,95410.72
2023-11-20T00:28:34.400Z,95410.50
2023-11-20T00:31:02.250Z,95418.44
2023-11-20T00:33:29.829Z,95423.47
2023-11-20T00:35:57.457Z,95431.09
2023-11-20T00:38:25.795Z,95434.53
2023-11-20T00:40:53.303Z,95432.69
2023-11-20T00:43:22.193Z,95432.66
2023-11-20T00:45:49.829Z,95431.81
2023-11-20T00:48:17.450Z,95430.25
2023-11-20T00:50:45.014Z,95435.53
2023-11-20T00:53:12.650Z,95420.44
2023-11-20T00:55:40.297Z,95436.03
2023-11-20T00:58:07.946Z,95429.22
2023-11-20T01:00:36.892Z,95440.31
2023-11-20T01:03:04.936Z,95429.50
2023-11-20T01:05:32.552Z,95431.34
2023-11-20T01:08:00.171Z,95423.69
2023-11-20T01:10:28.110Z,95423.72
2023-11-20T01:12:55.644Z,95437.19
2023-11-20T01:15:23.325Z,95422.66
2023-11-20T01:17:52.285Z,95418.19
2023-11-20T01:20:19.871Z,95429.53
2023-11-20T01:22:47.427Z,95353.06
2023-11-20T01:25:15.279Z,95382.94
2023-11-20T01:27:42.931Z,95434.25
2023-11-20T01:30:10.866Z,95405.66
2023-11-20T01:32:38.802Z,95426.25
2023-11-20T01:35:10.024Z,95330.72
2023-11-20T01:37:37.630Z,95365.66
2023-11-20T01:40:06.602Z,95441.28
2023-11-20T01:42:34.236Z,95437.84
2023-11-20T01:45:01.829Z,95444.47
2023-11-20T01:47:29.431Z,95447.63
2023-11-20T01:49:57.961Z,95359.03
2023-11-20T01:52:27.011Z,95443.16
2023-11-20T01:54:55.450Z,95440.22
2023-11-20T01:57:23.600Z,95432.59
2023-11-20T01:59:51.195Z,95366.66
2023-11-20T02:02:18.980Z,95425.97
2023-11-20T02:04:52.461Z,95427.56
2023-11-20T02:07:20.263Z,95431.78
2023-11-20T02:09:49.383Z,95435.22
2023-11-20T02:12:17.110Z,95422.53
2023-11-20T02:14:44.760Z,95424.13
2023-11-20T02:17:12.552Z,95422.84
2023-11-20T02:19:40.661Z,95414.91
2023-11-20T02:22:08.382Z,95381.84
2023-11-20T02:24:36.092Z,95424.44
2023-11-20T02:27:23.366Z,95425.47
2023-11-20T02:29:54.662Z,95403.78
2023-11-20T02:32:22.713Z,95355.66
2023-11-20T02:34:52.729Z,95391.66
2023-11-20T02:37:20.424Z,95362.03
2023-11-20T02:39:49.894Z,95412.03
2023-11-20T02:42:17.433Z,95410.97
2023-11-20T02:44:47.047Z,95413.91
2023-11-20T02:47:16.249Z,95407.78
2023-11-20T02:49:44.211Z,95401.19
2023-11-20T02:52:11.865Z,95404.31
2023-11-20T02:54:39.465Z,95414.38
2023-11-20T02:57:07.141Z,95383.13
2023-11-20T02:59:34.698Z,95339.53
2023-11-20T03:02:02.664Z,95411.69
2023-11-20T03:04:31.616Z,95383.94
2023-11-20T03:06:59.257Z,95404.31
2023-11-20T03:09:27.001Z,95396.41
2023-11-20T03:11:54.495Z,95404.84
2023-11-20T03:14:22.019Z,95404.59
2023-11-20T03:16:50.287Z,95350.34
2023-11-20T03:19:17.995Z,95366.78
2023-11-20T03:21:46.899Z,95407.00
2023-11-20T03:24:14.878Z,95397.47
2023-11-20T03:26:42.736Z,95393.00
2023-11-20T03:29:10.309Z,95400.63
2023-11-20T03:31:39.217Z,95367.63
2023-11-20T03:34:07.373Z,95398.28
2023-11-20T03:36:36.879Z,95395.59
2023-11-20T03:39:05.923Z,95359.13
2023-11-20T03:41:33.536Z,95361.53
2023-11-20T03:44:01.094Z,95375.53
2023-11-20T03:46:28.704Z,95372.88
2023-11-20T03:48:56.397Z,95387.16
2023-11-20T03:51:24.156Z,95384.00
2023-11-20T03:53:51.943Z,95387.44
2023-11-20T03:56:20.848Z,95384.25
2023-11-20T03:58:48.373Z,95380.03
2023-11-20T04:01:16.123Z,95387.44
2023-11-20T04:03:43.855Z,95386.88
2023-11-20T04:06:11.524Z,95373.44
2023-11-20T04:08:39.152Z,95380.53
2023-11-20T04:11:06.691Z,95400.88
2023-11-20T04:13:35.604Z,95371.25
2023-11-20T04:16:05.339Z,95370.97
2023-11-20T04:18:33.427Z,95399.81
2023-11-20T04:21:01.604Z,95399.56
2023-11-20T04:23:29.621Z,95381.88
2023-11-20T04:25:57.245Z,95385.84
2023-11-20T04:28:24.843Z,95387.44
2023-11-20T04:30:53.809Z,95390.06
2023-11-20T04:33:21.412Z,95390.31
2023-11-20T04:35:48.966Z,95359.84
2023-11-20T04:38:16.686Z,95400.25
2023-11-20T04:40:44.240Z,95399.47
2023-11-20T04:43:11.932Z,95389.97
2023-11-20T04:45:39.493Z,95366.94
2023-11-20T04:48:11.002Z,95362.72
2023-11-20T04:50:38.602Z,95330.22
2023-11-20T04:53:06.155Z,95383.38
2023-11-20T04:55:33.682Z,95364.56
2023-11-20T04:58:01.616Z,95370.09
2023-11-20T05:00:29.570Z,95355.06
2023-11-20T05:02:57.251Z,95377.50
2023-11-20T05:05:26.663Z,95380.16
2023-11-20T05:07:55.191Z,95376.47
2023-11-20T05:10:22.838Z,95370.41
2023-11-20T05:12:50.498Z,95301.03
2023-11-20T05:15:18.110Z,95283.91
2023-11-20T05:17:46.372Z,95347.88
2023-11-20T05:20:14.084Z,95346.28
2023-11-20T05:22:43.033Z,95294.72
2023-11-20T05:25:12.429Z,95368.25
2023-11-20T05:27:40.866Z,95280.41
2023-11-20T05:30:10.316Z,95369.84
2023-11-20T05:32:38.006Z,95324.28
2023-11-20T05:35:06.570Z,95378.50
2023-11-20T05:37:34.247Z,95376.69
2023-11-20T05:40:04.305Z,95362.84
2023-11-20T05:42:31.937Z,95371.38
2023-11-20T05:44:59.521Z,95382.22
2023-11-20T05:47:27.165Z,95369.22
2023-11-20T05:49:54.788Z,95389.84
2023-11-20T05:52:22.389Z,95364.72
2023-11-20T05:54:49.957Z,95303.16
2023-11-20T05:57:19.164Z,95369.59
2023-11-20T05:59:47.495Z,95340.22
2023-11-20T06:02:15.142Z,95374.38
2023-11-20T06:04:42.809Z,95385.72
2023-11-20T06:07:11.720Z,95379.91
2023-11-20T06:09:39.599Z,95398.88
2023-11-20T06:12:08.125Z,95404.66
2023-11-20T06:14:37.256Z,95407.25
2023-11-20T06:17:05.406Z,95405.94
2023-11-20T06:19:33.088Z,95381.34
2023-11-20T06:22:00.850Z,95372.81
2023-11-20T06:24:28.563Z,95415.47
2023-11-20T06:26:56.209Z,95322.00
2023-11-20T06:29:24.056Z,95419.63
2023-11-20T06:31:53.188Z,95306.91
2023-11-20T06:34:20.865Z,95409.34
2023-11-20T06:36:48.681Z,95423.63
2023-11-20T06:39:17.103Z,95425.44
2023-11-20T06:41:44.657Z,95424.13
2023-11-20T06:44:12.169Z,95424.63
2023-11-20T06:46:39.749Z,95429.63
2023-11-20T06:49:09.023Z,95420.59
2023-11-20T06:51:36.582Z,95383.50
2023-11-20T06:54:05.091Z,95435.16
2023-11-20T06:56:33.003Z,95442.03
2023-11-20T06:59:00.593Z,95444.91
2023-11-20T07:01:27.212Z,95392.72
2023-11-20T07:03:56.220Z,95441.94
2023-11-20T07:06:26.873Z,95392.50
2023-11-20T07:08:55.483Z,95367.41
2023-11-20T07:11:23.267Z,95436.19
2023-11-20T07:13:50.841Z,95434.13
2023-11-20T07:16:18.541Z,95359.38
2023-11-20T07:18:46.224Z,95444.09
2023-11-20T07:21:14.191Z,95454.88
2023-11-20T07:23:43.063Z,95444.56
2023-11-20T07:26:10.599Z,95441.13
2023-11-20T07:28:38.171Z,95394.78
2023-11-20T07:31:06.010Z,95451.97
2023-11-20T07:33:33.673Z,95450.41
2023-11-20T07:36:01.519Z,95413.84
2023-11-20T07:38:29.129Z,95450.41
2023-11-20T07:41:03.161Z,95456.25
2023-11-20T07:43:30.812Z,95450.13
2023-11-20T07:45:58.507Z,95461.53
2023-11-20T07:48:26.274Z,95457.06
2023-11-20T07:50:53.857Z,95459.69
2023-11-20T07:53:21.427Z,95453.38
2023-11-20T07:55:50.389Z,95465.28
2023-11-20T07:58:19.564Z,95458.41
2023-11-20T08:00:48.520Z,95466.63
2023-11-20T08:03:16.091Z,95466.16
2023-11-20T08:05:49.536Z,95470.66
2023-11-20T08:08:17.930Z,95463.78
2023-11-20T08:10:45.539Z,95460.88
2023-11-20T08:13:13.152Z,95446.00
2023-11-20T08:15:42.351Z,95454.75
2023-11-20T08:18:10.088Z,95457.94
2023-11-20T08:20:37.698Z,95465.91
2023-11-20T08:23:05.394Z,95468.00
2023-11-20T08:25:32.992Z,95443.69
2023-11-20T08:28:00.585Z,95393.94
2023-11-20T08:30:28.774Z,95462.25
2023-11-20T08:32:57.739Z,95464.06
2023-11-20T08:35:25.564Z,95457.75
2023-11-20T08:37:53.786Z,95454.25
2023-11-20T08:40:21.428Z,95469.34
2023-11-20T08:42:49.218Z,95452.47
2023-11-20T08:45:16.954Z,95438.19
2023-11-20T08:47:44.601Z,95450.41
2023-11-20T08:50:15.260Z,95457.59
2023-11-20T08:52:43.213Z,95447.09
2023-11-20T08:55:10.868Z,95450.53
2023-11-20T08:57:38.461Z,95449.44
2023-11-20T09:00:07.430Z,95446.00
2023-11-20T09:02:35.141Z,95441.81
2023-11-20T09:05:02.902Z,95439.97
2023-11-20T09:07:31.831Z,95435.47
2023-11-20T09:09:59.504Z,95437.13
2023-11-20T09:12:27.160Z,95436.63
2023-11-20T09:14:54.693Z,95409.44
2023-11-20T09:17:22.259Z,95416.25
2023-11-20T09:19:49.796Z,95438.19
2023-11-20T09:22:17.406Z,95434.25
2023-11-20T09:24:52.878Z,95430.03
2023-11-20T09:27:26.514Z,95435.88
2023-11-20T09:29:54.164Z,95430.84
2023-11-20T09:32:21.903Z,95424.75
2023-11-20T09:34:49.482Z,95373.19
2023-11-20T09:37:17.157Z,95390.34
2023-11-20T09:39:47.420Z,95421.03
2023-11-20T09:42:24.414Z,95416.00
2023-11-20T09:44:56.188Z,95360.75
2023-11-20T09:47:24.234Z,95406.47
2023-11-20T09:49:53.616Z,95409.13
2023-11-20T09:52:21.955Z,95415.00
2023-11-20T09:54:56.549Z,95415.53
2023-11-20T09:57:27.400Z,95419.47
2023-11-20T09:59:55.594Z,95414.47
2023-11-20T10:02:23.783Z,95413.41
2023-11-20T10:04:56.059Z,95401.25
2023-11-20T10:07:26.488Z,95416.28
2023-11-20T10:09:59.499Z,95408.88
2023-11-20T10:12:28.898Z,95408.66
2023-11-20T10:14:56.979Z,95406.81
2023-11-20T10:17:24.864Z,95405.78
2023-11-20T10:19:52.501Z,95370.03
2023-11-20T10:22:21.105Z,95293.69
2023-11-20T10:24:49.827Z,95379.81
2023-11-20T10:27:21.896Z,95399.63
2023-11-20T10:29:49.512Z,95385.91
2023-11-20T10:32:17.598Z,95380.09
2023-11-20T10:34:45.348Z,95379.56
2023-11-20T10:37:13.913Z,95375.09
2023-11-20T10:39:42.549Z,95380.09
2023-11-20T10:42:12.129Z,95348.88
2023-11-20T10:44:41.074Z,95370.03
2023-11-20T10:47:08.873Z,95347.34
2023-11-20T10:49:42.792Z,95355.31
2023-11-20T10:52:17.782Z,95354.25
2023-11-20T10:54:49.112Z,95358.50
2023-11-20T10:57:19.146Z,95357.44
2023-11-20T10:59:53.126Z,95311.47
2023-11-20T11:02:21.994Z,95344.50
2023-11-20T11:04:52.745Z,95341.03
2023-11-20T11:07:23.824Z,95327.06
2023-11-20T11:09:54.116Z,95312.78
2023-11-20T11:12:24.340Z,95292.16
2023-11-20T11:14:53.436Z,95315.97
2023-11-20T11:17:26.646Z,95322.31
2023-11-20T11:20:03.270Z,95312.53
2023-11-20T11:22:34.000Z,95321.78
2023-11-20T11:25:11.266Z,95259.44
2023-11-20T11:27:43.754Z,95321.75
2023-11-20T11:30:14.885Z,95321.47
2023-11-20T11:33:00.446Z,95317.00
2023-11-20T11:35:51.943Z,95325.44
2023-11-20T11:38:28.925Z,95314.59
2023-11-20T11:41:11.458Z,95274.94
2023-11-20T11:43:46.491Z,95310.06
2023-11-20T11:46:15.518Z,95316.06
2023-11-20T11:48:43.752Z,95314.50
2023-11-20T11:51:20.887Z,95324.50
2023-11-20T11:54:14.088Z,95324.22
2023-11-20T11:56:49.184Z,95322.06
2023-11-20T11:59:21.460Z,95291.16
2023-11-20T12:01:50.429Z,95319.47
2023-11-20T12:04:56.553Z,95301.75
2023-11-20T12:07:47.029Z,95316.03
2023-11-20T12:10:15.026Z,95312.16
2023-11-20T12:13:12.229Z,95307.63
2023-11-20T12:15:41.333Z,95283.06
2023-11-20T12:18:14.079Z,95290.75
2023-11-20T12:20:45.961Z,95284.97
2023-11-20T12:23:20.156Z,95299.25
2023-11-20T12:25:48.556Z,95291.34
2023-11-20T12:28:16.679Z,95283.41
2023-11-20T12:30:45.292Z,95279.97
2023-11-20T12:33:14.195Z,95278.94
2023-11-20T12:35:41.783Z,95276.06
2023-11-20T12:38:10.461Z,95260.22
2023-11-20T12:40:38.366Z,95251.50
2023-11-20T12:43:05.966Z,95226.94
2023-11-20T12:45:33.561Z,95262.09
2023-11-20T12:48:01.195Z,95251.75
2023-11-20T12:50:32.333Z,95191.03
2023-11-20T12:53:01.201Z,95224.31
2023-11-20T12:55:29.496Z,95238.59
2023-11-20T12:57:59.328Z,95252.28
2023-11-20T13:00:28.793Z,95239.38
2023-11-20T13:02:59.664Z,95242.25
2023-11-20T13:05:29.577Z,95238.31
2023-11-20T13:08:00.680Z,95237.78
2023-11-20T13:10:29.086Z,95229.34
2023-11-20T13:13:06.144Z,95243.59
2023-11-20T13:15:35.503Z,95207.41
2023-11-20T13:18:04.045Z,95196.31
2023-11-20T13:20:38.655Z,95227.25
2023-11-20T13:23:08.181Z,95242.53
2023-11-20T13:25:35.784Z,95228.53
2023-11-20T13:28:03.524Z,95235.91
2023-11-20T13:30:32.319Z,95229.84
2023-11-20T13:32:59.926Z,95217.72
2023-11-20T13:35:27.530Z,95226.94
2023-11-20T13:37:57.108Z,95222.47
2023-11-20T13:40:36.719Z,95211.66
2023-11-20T13:43:10.567Z,95221.16
2023-11-20T13:45:38.270Z,95218.50
2023-11-20T13:48:06.622Z,95225.63
2023-11-20T13:50:34.260Z,95216.38
2023-11-20T13:53:03.000Z,95217.69
2023-11-20T13:55:32.519Z,95213.75
2023-11-20T13:58:00.112Z,95194.19
2023-11-20T14:00:27.680Z,95205.53
2023-11-20T14:02:55.469Z,95207.38
2023-11-20T14:05:23.136Z,95192.06
2023-11-20T14:07:50.866Z,95198.94
2023-11-20T14:10:18.647Z,95190.50
2023-11-20T14:12:50.319Z,95187.59
2023-11-20T14:15:18.070Z,95189.44
2023-11-20T14:17:46.584Z,95183.63
2023-11-20T14:20:18.188Z,95188.38
2023-11-20T14:22:46.984Z,95172.78
2023-11-20T14:25:15.385Z,95172.00
2023-11-20T14:27:43.454Z,95169.66
2023-11-20T14:30:13.529Z,95141.13
2023-11-20T14:32:43.223Z,95170.94
2023-11-20T14:35:11.283Z,95125.78
2023-11-20T14:37:39.088Z,95147.19
2023-11-20T14:40:09.839Z,95158.03
2023-11-20T14:42:40.316Z,95075.13
2023-11-20T14:45:11.100Z,95158.78
2023-11-20T14:47:41.259Z,95156.94
2023-11-20T14:50:11.021Z,95144.00
2023-11-20T14:52:40.243Z,95173.03
2023-11-20T14:55:10.098Z,95166.41
2023-11-20T14:57:38.331Z,95161.44
2023-11-20T15:00:08.419Z,95167.47
2023-11-20T15:02:36.546Z,95170.34
2023-11-20T15:05:07.563Z,95169.28
2023-11-20T15:07:35.459Z,95172.19
2023-11-20T15:10:04.900Z,95160.81
2023-11-20T15:12:32.805Z,95174.81
2023-11-20T15:15:00.520Z,95134.91
2023-11-20T15:17:28.659Z,95177.16
2023-11-20T15:19:56.400Z,95154.44
2023-11-20T15:22:25.670Z,95136.50
2023-11-20T15:24:53.487Z,95179.00
2023-11-20T15:27:21.710Z,95182.44
2023-11-20T15:29:49.930Z,95173.72
2023-11-20T15:32:17.738Z,95159.22
2023-11-20T15:34:45.325Z,95159.72
2023-11-20T15:37:13.540Z,95169.22
2023-11-20T15:39:42.617Z,95156.53
2023-11-20T15:42:11.041Z,95165.22
2023-11-20T15:44:38.686Z,95169.44
2023-11-20T15:47:07.755Z,95134.03
2023-11-20T15:49:36.117Z,95105.03
2023-11-20T15:52:04.382Z,95162.59
2023-11-20T15:54:31.999Z,95167.31
2023-11-20T15:57:00.908Z,95160.72
2023-11-20T15:59:28.501Z,95168.34
2023-11-20T16:01:56.104Z,95161.53
2023-11-20T16:04:23.786Z,95165.75
2023-11-20T16:06:53.111Z,95164.19
2023-11-20T16:09:21.601Z,95156.81
2023-11-20T16:11:49.187Z,95115.66
2023-11-20T16:14:18.184Z,95151.81
2023-11-20T16:16:46.513Z,95155.00
2023-11-20T16:19:14.576Z,95155.47
2023-11-20T16:21:42.260Z,95148.38
2023-11-20T16:24:10.214Z,95165.22
2023-11-20T16:26:38.027Z,95156.03
2023-11-20T16:29:05.891Z,95112.63
2023-11-20T16:31:35.193Z,95142.81
2023-11-20T16:34:04.194Z,95118.25
2023-11-20T16:36:32.720Z,95102.41
2023-11-20T16:39:00.586Z,95152.75
2023-11-20T16:41:28.149Z,95146.44
2023-11-20T16:43:55.668Z,95152.03
2023-11-20T16:46:24.495Z,95145.44
2023-11-20T16:48:53.828Z,95115.72
2023-11-20T16:51:21.535Z,95140.06
2023-11-20T16:53:49.412Z,95156.16
2023-11-20T16:56:17.153Z,95151.44
2023-11-20T16:58:45.151Z,95141.41
2023-11-20T17:01:12.801Z,95143.28
2023-11-20T17:03:40.436Z,95140.34
2023-11-20T17:06:09.709Z,95134.28
2023-11-20T17:08:37.370Z,95143.50
2023-11-20T17:11:05.404Z,95139.81
2023-11-20T17:13:33.080Z,95134.03
2023-11-20T17:16:00.979Z,95115.84
2023-11-20T17:18:28.579Z,95128.53
2023-11-20T17:20:56.136Z,95117.16
2023-11-20T17:23:25.671Z,95118.50
2023-11-20T17:25:53.246Z,95126.16
2023-11-20T17:28:20.831Z,95124.81
2023-11-20T17:30:48.485Z,95124.31
2023-11-20T17:33:16.062Z,95130.88
2023-11-20T17:35:44.016Z,95075.66
2023-11-20T17:38:11.609Z,95123.75
2023-11-20T17:40:41.535Z,95122.66
2023-11-20T17:43:09.268Z,95118.75
2023-11-20T17:45:37.182Z,95117.44
2023-11-20T17:48:08.804Z,95104.00
2023-11-20T17:50:36.911Z,95099.78
2023-11-20T17:53:05.890Z,95074.88
2023-11-20T17:55:36.252Z,95110.03
2023-11-20T17:58:05.390Z,95033.44
2023-11-20T18:00:33.250Z,95105.31
2023-11-20T18:03:00.902Z,95099.50
2023-11-20T18:05:30.591Z,95094.72
2023-11-20T18:07:59.696Z,95108.75
2023-11-20T18:10:27.318Z,95063.28
2023-11-20T18:12:55.869Z,95111.34
2023-11-20T18:15:25.428Z,95105.03
2023-11-20T18:17:53.121Z,95108.19
2023-11-20T18:20:20.991Z,95005.47
2023-11-20T18:22:50.098Z,95008.16
2023-11-20T18:25:17.979Z,95037.72
2023-11-20T18:27:45.594Z,95098.97
2023-11-20T18:30:13.866Z,95098.22
2023-11-20T18:32:43.069Z,95107.94
2023-11-20T18:35:11.148Z,95105.03
2023-11-20T18:37:40.421Z,95047.75
2023-11-20T18:40:09.694Z,95037.97
2023-11-20T18:42:39.040Z,95101.09
2023-11-20T18:45:07.154Z,95053.84
2023-11-20T18:47:34.746Z,95096.09
2023-11-20T18:50:04.871Z,95099.78
2023-11-20T18:52:32.653Z,95086.84
2023-11-20T18:55:00.330Z,95107.94
2023-11-20T18:57:27.971Z,95100.06
2023-11-20T18:59:55.845Z,95045.13
2023-11-20T19:02:25.270Z,95079.19
2023-11-20T19:04:52.932Z,95077.91
2023-11-20T19:07:21.909Z,95075.25
2023-11-20T19:09:49.497Z,95093.72
2023-11-20T19:12:17.065Z,95091.88
2023-11-20T19:14:44.620Z,95087.63
2023-11-20T19:17:12.949Z,95102.94
2023-11-20T19:19:40.800Z,95106.91
2023-11-20T19:22:08.564Z,95059.38
2023-11-20T19:24:37.512Z,95104.78
2023-11-20T19:27:06.073Z,95070.69
2023-11-20T19:29:33.656Z,95091.31
2023-11-20T19:32:01.195Z,95094.78
2023-11-20T19:34:28.790Z,95103.75
2023-11-20T19:36:56.684Z,95102.69
2023-11-20T19:39:24.335Z,95058.59
2023-11-20T19:41:54.147Z,95046.16
2023-11-20T19:44:21.789Z,95105.06
2023-11-20T19:46:49.489Z,95058.34
2023-11-20T19:49:17.145Z,95096.34
2023-11-20T19:51:44.711Z,95093.25
2023-11-20T19:54:12.289Z,95071.59
2023-11-20T19:56:42.821Z,95092.66
2023-11-20T19:59:12.207Z,95097.66
2023-11-20T20:01:40.925Z,95091.63
2023-11-20T20:04:09.119Z,95088.47
2023-11-20T20:06:37.705Z,95062.34
2023-11-20T20:09:05.697Z,95094.00
2023-11-20T20:11:33.518Z,95069.41
2023-11-20T20:14:01.829Z,95102.66
2023-11-20T20:16:30.946Z,95093.69
2023-11-20T20:18:59.546Z,95107.47
2023-11-20T20:21:27.420Z,95074.03
2023-11-20T20:23:55.084Z,95079.00
2023-11-20T20:26:31.617Z,95102.16
2023-11-20T20:29:01.277Z,95043.25
2023-11-20T20:31:30.816Z,95102.75
2023-11-20T20:33:59.281Z,95111.38
2023-11-20T20:36:27.108Z,95112.44
2023-11-20T20:38:54.747Z,95096.31
2023-11-20T20:41:23.940Z,95116.91
2023-11-20T20:43:51.681Z,95095.00
2023-11-20T20:46:19.514Z,95056.69
2023-11-20T20:48:48.561Z,95108.16
2023-11-20T20:51:16.268Z,95100.22
2023-11-20T20:53:44.150Z,95107.81
2023-11-20T20:56:13.673Z,95068.75
2023-11-20T20:58:41.396Z,95092.25
2023-11-20T21:01:09.243Z,95105.97
2023-11-20T21:03:40.000Z,95065.56
2023-11-20T21:06:09.713Z,95114.91
2023-11-20T21:08:37.649Z,95083.53
2023-11-20T21:11:05.444Z,95109.38
2023-11-20T21:13:33.010Z,95070.50
2023-11-20T21:16:00.896Z,95062.09
2023-11-20T21:18:28.444Z,95090.34
2023-11-20T21:20:56.668Z,95121.47
2023-11-20T21:23:25.548Z,95103.59
2023-11-20T21:25:53.136Z,95114.34
2023-11-20T21:28:20.731Z,95119.13
2023-11-20T21:30:48.263Z,95019.31
2023-11-20T21:33:15.924Z,95120.19
2023-11-20T21:35:49.430Z,95108.59
2023-11-20T21:38:18.378Z,95124.66
2023-11-20T21:40:49.959Z,95125.16
2023-11-20T21:43:18.617Z,95134.38
2023-11-20T21:45:46.331Z,95126.22
2023-11-20T21:48:14.635Z,95086.19
2023-11-20T21:50:42.285Z,95130.28
2023-11-20T21:53:09.865Z,95129.41
2023-11-20T21:55:37.436Z,95124.63
2023-11-20T21:58:06.685Z,95093.63
2023-11-20T22:00:34.249Z,95132.78
2023-11-20T22:03:03.014Z,95140.19
2023-11-20T22:05:31.742Z,95140.72
2023-11-20T22:07:59.298Z,95124.63
2023-11-20T22:10:26.894Z,95137.84
2023-11-20T22:12:54.465Z,95148.09
2023-11-20T22:15:23.479Z,95133.53
2023-11-20T22:17:51.126Z,95153.34
2023-11-20T22:20:23.084Z,95112.34
2023-11-20T22:22:51.635Z,95155.66
2023-11-20T22:25:21.748Z,95154.06
2023-11-20T22:27:49.738Z,95142.97
2023-11-20T22:30:19.472Z,95149.34
2023-11-20T22:32:48.403Z,95156.72
2023-11-20T22:35:16.366Z,95157.00
2023-11-20T22:37:45.160Z,95149.53
2023-11-20T22:40:16.315Z,95162.75
2023-11-20T22:42:44.679Z,95162.22
2023-11-20T22:45:12.776Z,95177.50
2023-11-20T22:47:40.406Z,95143.44
2023-11-20T22:50:09.989Z,95184.44
2023-11-20T22:52:38.136Z,95188.03
2023-11-20T22:55:07.006Z,95192.38
2023-11-20T22:57:34.656Z,95209.13
2023-11-20T23:00:02.260Z,95209.88
2023-11-20T23:02:30.012Z,95199.94
2023-11-20T23:04:58.303Z,95219.13
2023-11-20T23:07:27.903Z,95219.91
2023-11-20T23:09:55.436Z,95219.38
2023-11-20T23:12:22.956Z,95220.66
2023-11-20T23:14:50.505Z,95223.28
2023-11-20T23:17:18.018Z,95222.75
2023-11-20T23:19:45.528Z,95220.38
2023-11-20T23:22:13.130Z,95228.00
2023-11-20T23:24:41.973Z,95226.16
2023-11-20T23:27:09.636Z,95228.81
2023-11-20T23:29:37.864Z,95227.50
2023-11-20T23:32:06.301Z,95207.38
2023-11-20T23:34:34.029Z,95231.25
2023-11-20T23:37:01.724Z,95230.44
2023-11-20T23:39:29.252Z,95243.59
2023-11-20T23:41:58.099Z,95245.97
2023-11-20T23:44:25.754Z,95238.28
2023-11-20T23:46:53.644Z,95250.91
2023-11-20T23:49:21.303Z,95257.22
2023-11-20T23:51:48.862Z,95253.50
2023-11-20T23:54:16.580Z,95260.34
2023-11-20T23:56:44.080Z,95211.97
2023-11-20T23:59:13.136Z,95249.00
